sensor_id;sensor_type;location;lat;lon;timestamp;temperature;humidity
35804;DHT22;21924;51.934;7.414;2023-06-04T00:01:34;13.00;99.90
35804;DHT22;21924;51.934;7.414;2023-06-04T00:04:18;13.00;99.90
35804;DHT22;21924;51.934;7.414;2023-06-04T00:07:03;12.90;99.90
35804;DHT22;21924;51.934;7.414;2023-06-04T00:09:47;12.90;99.90
35804;DHT22;21924;51.934;7.414;2023-06-04T00:12:32;12.90;99.90
35804;DHT22;21924;51.934;7.414;2023-06-04T00:15:16;12.90;99.90
35804;DHT22;21924;51.934;7.414;2023-06-04T00:18:00;12.80;99.90
35804;DHT22;21924;51.934;7.414;2023-06-04T00:20:44;12.80;99.90
35804;DHT22;21924;51.934;7.414;2023-06-04T00:23:28;12.80;99.90
35804;DHT22;21924;51.934;7.414;2023-06-04T00:26:13;12.80;99.90
35804;DHT22;21924;51.934;7.414;2023-06-04T00:28:57;12.70;99.90
35804;DHT22;21924;51.934;7.414;2023-06-04T00:31:41;12.70;99.90
35804;DHT22;21924;51.934;7.414;2023-06-04T00:34:26;12.70;99.90
35804;DHT22;21924;51.934;7.414;2023-06-04T00:37:10;12.60;99.90
35804;DHT22;21924;51.934;7.414;2023-06-04T00:39:54;12.60;99.90
35804;DHT22;21924;51.934;7.414;2023-06-04T00:42:38;12.60;99.90
35804;DHT22;21924;51.934;7.414;2023-06-04T00:45:22;12.60;99.90
35804;DHT22;21924;51.934;7.414;2023-06-04T00:48:10;12.50;99.90
35804;DHT22;21924;51.934;7.414;2023-06-04T00:50:54;12.50;99.90
35804;DHT22;21924;51.934;7.414;2023-06-04T00:53:39;12.50;99.90
35804;DHT22;21924;51.934;7.414;2023-06-04T00:56:23;12.50;99.90
35804;DHT22;21924;51.934;7.414;2023-06-04T00:59:08;12.50;99.90
35804;DHT22;21924;51.934;7.414;2023-06-04T01:02:11;12.40;99.90
35804;DHT22;21924;51.934;7.414;2023-06-04T01:05:14;12.40;99.90
35804;DHT22;21924;51.934;7.414;2023-06-04T01:08:01;12.40;99.90
35804;DHT22;21924;51.934;7.414;2023-06-04T01:10:52;12.40;99.90
35804;DHT22;21924;51.934;7.414;2023-06-04T01:13:36;12.30;99.90
35804;DHT22;21924;51.934;7.414;2023-06-04T01:16:21;12.30;99.90
35804;DHT22;21924;51.934;7.414;2023-06-04T01:19:15;12.20;99.90
35804;DHT22;21924;51.934;7.414;2023-06-04T01:22:29;12.20;99.90
35804;DHT22;21924;51.934;7.414;2023-06-04T01:28:06;12.10;99.90
35804;DHT22;21924;51.934;7.414;2023-06-04T01:30:50;12.10;99.90
35804;DHT22;21924;51.934;7.414;2023-06-04T01:33:35;12.10;99.90
35804;DHT22;21924;51.934;7.414;2023-06-04T01:36:20;12.10;99.90
35804;DHT22;21924;51.934;7.414;2023-06-04T01:39:04;12.00;99.90
35804;DHT22;21924;51.934;7.414;2023-06-04T01:41:49;12.10;99.90
35804;DHT22;21924;51.934;7.414;2023-06-04T01:44:33;12.00;99.90
35804;DHT22;21924;51.934;7.414;2023-06-04T01:47:17;12.10;99.90
35804;DHT22;21924;51.934;7.414;2023-06-04T01:50:06;12.00;99.90
35804;DHT22;21924;51.934;7.414;2023-06-04T01:52:53;12.00;99.90
35804;DHT22;21924;51.934;7.414;2023-06-04T01:55:38;11.90;99.90
35804;DHT22;21924;51.934;7.414;2023-06-04T01:58:23;12.00;99.90
35804;DHT22;21924;51.934;7.414;2023-06-04T02:01:11;11.90;99.90
35804;DHT22;21924;51.934;7.414;2023-06-04T02:03:55;11.90;99.90
35804;DHT22;21924;51.934;7.414;2023-06-04T02:06:40;11.90;99.90
35804;DHT22;21924;51.934;7.414;2023-06-04T02:09:25;11.90;99.90
35804;DHT22;21924;51.934;7.414;2023-06-04T02:12:10;11.90;99.90
35804;DHT22;21924;51.934;7.414;2023-06-04T02:14:54;11.90;99.90
35804;DHT22;21924;51.934;7.414;2023-06-04T02:17:38;11.80;99.90
35804;DHT22;21924;51.934;7.414;2023-06-04T02:20:24;11.90;99.90
35804;DHT22;21924;51.934;7.414;2023-06-04T02:23:09;11.80;99.90
35804;DHT22;21924;51.934;7.414;2023-06-04T02:25:53;11.80;99.90
35804;DHT22;21924;51.934;7.414;2023-06-04T02:28:37;11.80;99.90
35804;DHT22;21924;51.934;7.414;2023-06-04T02:31:21;11.80;99.90
35804;DHT22;21924;51.934;7.414;2023-06-04T02:34:06;11.80;99.90
35804;DHT22;21924;51.934;7.414;2023-06-04T02:36:50;11.80;99.90
35804;DHT22;21924;51.934;7.414;2023-06-04T02:39:35;11.70;99.90
35804;DHT22;21924;51.934;7.414;2023-06-04T02:42:19;11.70;99.90
35804;DHT22;21924;51.934;7.414;2023-06-04T02:45:04;11.70;99.90
35804;DHT22;21924;51.934;7.414;2023-06-04T02:47:48;11.70;99.90
35804;DHT22;21924;51.934;7.414;2023-06-04T02:50:33;11.70;99.90
35804;DHT22;21924;51.934;7.414;2023-06-04T02:53:17;11.60;99.90
35804;DHT22;21924;51.934;7.414;2023-06-04T02:56:01;11.60;99.90
35804;DHT22;21924;51.934;7.414;2023-06-04T02:58:54;11.50;99.90
35804;DHT22;21924;51.934;7.414;2023-06-04T03:01:39;11.60;99.90
35804;DHT22;21924;51.934;7.414;2023-06-04T03:04:24;11.60;99.90
35804;DHT22;21924;51.934;7.414;2023-06-04T03:07:09;11.50;99.90
35804;DHT22;21924;51.934;7.414;2023-06-04T03:09:55;11.50;99.90
35804;DHT22;21924;51.934;7.414;2023-06-04T03:12:40;11.50;99.90
35804;DHT22;21924;51.934;7.414;2023-06-04T03:15:24;11.50;99.90
35804;DHT22;21924;51.934;7.414;2023-06-04T03:18:08;11.40;99.90
35804;DHT22;21924;51.934;7.414;2023-06-04T03:20:53;11.50;99.90
35804;DHT22;21924;51.934;7.414;2023-06-04T03:23:38;11.40;99.90
35804;DHT22;21924;51.934;7.414;2023-06-04T03:26:22;11.50;99.90
35804;DHT22;21924;51.934;7.414;2023-06-04T03:29:06;11.50;99.90
35804;DHT22;21924;51.934;7.414;2023-06-04T03:31:51;11.40;99.90
35804;DHT22;21924;51.934;7.414;2023-06-04T03:34:35;11.40;99.90
35804;DHT22;21924;51.934;7.414;2023-06-04T03:37:19;11.40;99.90
35804;DHT22;21924;51.934;7.414;2023-06-04T03:40:05;11.40;99.90
35804;DHT22;21924;51.934;7.414;2023-06-04T03:42:50;11.40;99.90
35804;DHT22;21924;51.934;7.414;2023-06-04T03:45:34;11.40;99.90
35804;DHT22;21924;51.934;7.414;2023-06-04T03:48:18;11.50;99.90
35804;DHT22;21924;51.934;7.414;2023-06-04T03:51:02;11.50;99.90
35804;DHT22;21924;51.934;7.414;2023-06-04T03:53:47;11.60;99.90
35804;DHT22;21924;51.934;7.414;2023-06-04T03:56:31;11.70;99.90
35804;DHT22;21924;51.934;7.414;2023-06-04T03:59:16;11.60;99.90
35804;DHT22;21924;51.934;7.414;2023-06-04T04:02:00;11.60;99.90
35804;DHT22;21924;51.934;7.414;2023-06-04T04:04:44;11.60;99.90
35804;DHT22;21924;51.934;7.414;2023-06-04T04:07:29;11.60;99.90
35804;DHT22;21924;51.934;7.414;2023-06-04T04:10:13;11.70;99.90
35804;DHT22;21924;51.934;7.414;2023-06-04T04:12:58;11.70;99.90
35804;DHT22;21924;51.934;7.414;2023-06-04T04:15:42;11.70;99.90
35804;DHT22;21924;51.934;7.414;2023-06-04T04:18:26;11.80;99.90
35804;DHT22;21924;51.934;7.414;2023-06-04T04:21:11;12.20;99.90
35804;DHT22;21924;51.934;7.414;2023-06-04T04:23:55;12.40;99.90
35804;DHT22;21924;51.934;7.414;2023-06-04T04:26:39;12.90;99.90
35804;DHT22;21924;51.934;7.414;2023-06-04T04:29:26;13.20;99.90
35804;DHT22;21924;51.934;7.414;2023-06-04T04:32:11;13.40;99.90
35804;DHT22;21924;51.934;7.414;2023-06-04T04:34:56;13.60;99.90
35804;DHT22;21924;51.934;7.414;2023-06-04T04:37:41;13.70;99.90
35804;DHT22;21924;51.934;7.414;2023-06-04T04:40:25;13.60;99.90
35804;DHT22;21924;51.934;7.414;2023-06-04T04:43:09;13.80;99.90
35804;DHT22;21924;51.934;7.414;2023-06-04T04:45:54;14.00;99.90
35804;DHT22;21924;51.934;7.414;2023-06-04T04:48:38;14.20;99.90
35804;DHT22;21924;51.934;7.414;2023-06-04T04:51:24;14.20;99.90
35804;DHT22;21924;51.934;7.414;2023-06-04T04:54:08;14.10;99.90
35804;DHT22;21924;51.934;7.414;2023-06-04T04:56:53;14.10;99.90
35804;DHT22;21924;51.934;7.414;2023-06-04T04:59:37;14.00;99.90
35804;DHT22;21924;51.934;7.414;2023-06-04T05:02:21;14.00;99.90
35804;DHT22;21924;51.934;7.414;2023-06-04T05:05:06;13.80;99.90
35804;DHT22;21924;51.934;7.414;2023-06-04T05:07:50;13.70;99.90
35804;DHT22;21924;51.934;7.414;2023-06-04T05:10:35;13.90;99.90
35804;DHT22;21924;51.934;7.414;2023-06-04T05:13:20;14.00;99.90
35804;DHT22;21924;51.934;7.414;2023-06-04T05:16:04;14.20;99.90
35804;DHT22;21924;51.934;7.414;2023-06-04T05:18:50;14.20;99.90
35804;DHT22;21924;51.934;7.414;2023-06-04T05:21:35;14.30;99.90
35804;DHT22;21924;51.934;7.414;2023-06-04T05:24:20;14.20;99.90
35804;DHT22;21924;51.934;7.414;2023-06-04T05:27:05;14.10;99.90
35804;DHT22;21924;51.934;7.414;2023-06-04T05:29:49;14.00;99.90
35804;DHT22;21924;51.934;7.414;2023-06-04T05:32:33;14.10;99.90
35804;DHT22;21924;51.934;7.414;2023-06-04T05:35:17;14.10;99.90
35804;DHT22;21924;51.934;7.414;2023-06-04T05:38:02;14.20;99.90
35804;DHT22;21924;51.934;7.414;2023-06-04T05:40:47;14.30;99.90
35804;DHT22;21924;51.934;7.414;2023-06-04T05:43:31;14.30;99.90
35804;DHT22;21924;51.934;7.414;2023-06-04T05:46:15;14.30;99.90
35804;DHT22;21924;51.934;7.414;2023-06-04T05:48:59;14.20;99.90
35804;DHT22;21924;51.934;7.414;2023-06-04T05:51:44;14.30;99.90
35804;DHT22;21924;51.934;7.414;2023-06-04T05:54:29;14.30;99.90
35804;DHT22;21924;51.934;7.414;2023-06-04T05:57:13;14.30;99.90
35804;DHT22;21924;51.934;7.414;2023-06-04T05:59:58;14.30;99.90
35804;DHT22;21924;51.934;7.414;2023-06-04T06:02:42;14.40;99.90
35804;DHT22;21924;51.934;7.414;2023-06-04T06:05:27;14.50;99.90
35804;DHT22;21924;51.934;7.414;2023-06-04T06:08:11;14.50;99.90
35804;DHT22;21924;51.934;7.414;2023-06-04T06:10:56;14.60;99.90
35804;DHT22;21924;51.934;7.414;2023-06-04T06:13:40;14.60;99.90
35804;DHT22;21924;51.934;7.414;2023-06-04T06:16:24;14.70;99.90
35804;DHT22;21924;51.934;7.414;2023-06-04T06:19:09;14.80;99.90
35804;DHT22;21924;51.934;7.414;2023-06-04T06:21:53;14.90;99.90
35804;DHT22;21924;51.934;7.414;2023-06-04T06:24:39;15.00;99.90
35804;DHT22;21924;51.934;7.414;2023-06-04T06:27:23;15.20;99.90
35804;DHT22;21924;51.934;7.414;2023-06-04T06:30:08;15.50;99.90
35804;DHT22;21924;51.934;7.414;2023-06-04T06:32:53;15.70;99.90
35804;DHT22;21924;51.934;7.414;2023-06-04T06:35:37;15.70;99.90
35804;DHT22;21924;51.934;7.414;2023-06-04T06:38:22;15.70;99.90
35804;DHT22;21924;51.934;7.414;2023-06-04T06:41:07;15.60;99.90
35804;DHT22;21924;51.934;7.414;2023-06-04T06:43:52;15.70;99.90
35804;DHT22;21924;51.934;7.414;2023-06-04T06:46:36;15.90;99.90
35804;DHT22;21924;51.934;7.414;2023-06-04T06:49:20;16.00;99.90
35804;DHT22;21924;51.934;7.414;2023-06-04T06:52:04;16.20;99.90
35804;DHT22;21924;51.934;7.414;2023-06-04T06:54:49;16.40;99.90
35804;DHT22;21924;51.934;7.414;2023-06-04T06:57:33;16.50;99.90
35804;DHT22;21924;51.934;7.414;2023-06-04T07:00:17;16.50;99.90
35804;DHT22;21924;51.934;7.414;2023-06-04T07:03:02;16.40;99.90
35804;DHT22;21924;51.934;7.414;2023-06-04T07:05:47;16.50;99.90
35804;DHT22;21924;51.934;7.414;2023-06-04T07:08:32;16.50;99.90
35804;DHT22;21924;51.934;7.414;2023-06-04T07:11:17;16.60;99.90
35804;DHT22;21924;51.934;7.414;2023-06-04T07:14:01;16.60;99.90
35804;DHT22;21924;51.934;7.414;2023-06-04T07:16:48;16.60;99.90
35804;DHT22;21924;51.934;7.414;2023-06-04T07:19:33;16.70;99.90
35804;DHT22;21924;51.934;7.414;2023-06-04T07:22:17;16.80;99.90
35804;DHT22;21924;51.934;7.414;2023-06-04T07:25:01;17.00;99.90
35804;DHT22;21924;51.934;7.414;2023-06-04T07:27:48;17.00;99.90
35804;DHT22;21924;51.934;7.414;2023-06-04T07:30:34;17.10;99.90
35804;DHT22;21924;51.934;7.414;2023-06-04T07:33:20;17.10;99.90
35804;DHT22;21924;51.934;7.414;2023-06-04T07:36:04;17.20;99.90
35804;DHT22;21924;51.934;7.414;2023-06-04T07:38:48;17.30;99.90
35804;DHT22;21924;51.934;7.414;2023-06-04T07:41:32;17.50;99.90
35804;DHT22;21924;51.934;7.414;2023-06-04T07:44:17;17.50;99.90
35804;DHT22;21924;51.934;7.414;2023-06-04T07:47:01;17.70;99.90
35804;DHT22;21924;51.934;7.414;2023-06-04T07:49:46;17.70;99.90
35804;DHT22;21924;51.934;7.414;2023-06-04T07:52:30;17.80;99.90
35804;DHT22;21924;51.934;7.414;2023-06-04T07:55:14;17.80;99.90
35804;DHT22;21924;51.934;7.414;2023-06-04T07:57:58;17.90;99.90
35804;DHT22;21924;51.934;7.414;2023-06-04T08:00:43;18.00;99.90
35804;DHT22;21924;51.934;7.414;2023-06-04T08:03:27;18.00;99.90
35804;DHT22;21924;51.934;7.414;2023-06-04T08:06:11;18.10;99.90
35804;DHT22;21924;51.934;7.414;2023-06-04T08:08:58;18.30;99.90
35804;DHT22;21924;51.934;7.414;2023-06-04T08:11:42;18.40;99.90
35804;DHT22;21924;51.934;7.414;2023-06-04T08:14:28;18.50;99.90
35804;DHT22;21924;51.934;7.414;2023-06-04T08:17:12;18.60;99.90
35804;DHT22;21924;51.934;7.414;2023-06-04T08:19:57;18.70;99.90
35804;DHT22;21924;51.934;7.414;2023-06-04T08:22:41;18.80;99.90
35804;DHT22;21924;51.934;7.414;2023-06-04T08:25:26;18.80;99.90
35804;DHT22;21924;51.934;7.414;2023-06-04T08:28:10;19.00;99.90
35804;DHT22;21924;51.934;7.414;2023-06-04T08:30:55;19.10;99.90
35804;DHT22;21924;51.934;7.414;2023-06-04T08:33:39;19.20;99.90
35804;DHT22;21924;51.934;7.414;2023-06-04T08:36:23;19.20;99.90
35804;DHT22;21924;51.934;7.414;2023-06-04T08:39:08;19.30;99.90
35804;DHT22;21924;51.934;7.414;2023-06-04T08:41:56;19.50;99.90
35804;DHT22;21924;51.934;7.414;2023-06-04T08:44:44;19.50;99.90
35804;DHT22;21924;51.934;7.414;2023-06-04T08:47:29;19.60;99.90
35804;DHT22;21924;51.934;7.414;2023-06-04T08:50:16;19.70;99.90
35804;DHT22;21924;51.934;7.414;2023-06-04T08:53:01;19.80;99.90
35804;DHT22;21924;51.934;7.414;2023-06-04T08:55:46;19.90;99.90
35804;DHT22;21924;51.934;7.414;2023-06-04T08:58:36;20.00;99.90
35804;DHT22;21924;51.934;7.414;2023-06-04T09:01:20;20.00;99.90
35804;DHT22;21924;51.934;7.414;2023-06-04T09:04:06;20.20;99.90
35804;DHT22;21924;51.934;7.414;2023-06-04T09:06:51;20.20;99.90
35804;DHT22;21924;51.934;7.414;2023-06-04T09:09:39;20.20;99.90
35804;DHT22;21924;51.934;7.414;2023-06-04T09:12:24;20.20;99.90
35804;DHT22;21924;51.934;7.414;2023-06-04T09:15:10;20.30;99.90
35804;DHT22;21924;51.934;7.414;2023-06-04T09:17:54;20.20;99.90
35804;DHT22;21924;51.934;7.414;2023-06-04T09:20:39;20.40;99.90
35804;DHT22;21924;51.934;7.414;2023-06-04T09:23:23;20.70;99.90
35804;DHT22;21924;51.934;7.414;2023-06-04T09:26:08;20.70;99.90
35804;DHT22;21924;51.934;7.414;2023-06-04T09:28:53;20.80;99.90
35804;DHT22;21924;51.934;7.414;2023-06-04T09:31:39;20.80;99.90
35804;DHT22;21924;51.934;7.414;2023-06-04T09:34:28;21.00;99.90
35804;DHT22;21924;51.934;7.414;2023-06-04T09:37:15;21.10;99.90
35804;DHT22;21924;51.934;7.414;2023-06-04T09:40:01;21.30;99.90
35804;DHT22;21924;51.934;7.414;2023-06-04T09:42:46;21.50;99.90
35804;DHT22;21924;51.934;7.414;2023-06-04T09:45:33;21.40;99.90
35804;DHT22;21924;51.934;7.414;2023-06-04T09:48:19;21.20;99.90
35804;DHT22;21924;51.934;7.414;2023-06-04T09:51:08;21.30;99.90
35804;DHT22;21924;51.934;7.414;2023-06-04T09:53:55;21.40;99.90
35804;DHT22;21924;51.934;7.414;2023-06-04T09:56:40;21.60;99.90
35804;DHT22;21924;51.934;7.414;2023-06-04T09:59:25;21.70;99.70
35804;DHT22;21924;51.934;7.414;2023-06-04T10:02:09;21.60;99.00
35804;DHT22;21924;51.934;7.414;2023-06-04T10:04:55;21.80;99.50
35804;DHT22;21924;51.934;7.414;2023-06-04T10:07:43;21.70;98.80
35804;DHT22;21924;51.934;7.414;2023-06-04T10:10:28;21.70;99.20
35804;DHT22;21924;51.934;7.414;2023-06-04T10:13:19;22.00;98.20
35804;DHT22;21924;51.934;7.414;2023-06-04T10:16:03;22.10;98.10
35804;DHT22;21924;51.934;7.414;2023-06-04T10:18:47;22.20;98.30
35804;DHT22;21924;51.934;7.414;2023-06-04T10:21:33;22.20;97.90
35804;DHT22;21924;51.934;7.414;2023-06-04T10:24:21;22.30;97.60
35804;DHT22;21924;51.934;7.414;2023-06-04T10:27:06;22.00;96.60
35804;DHT22;21924;51.934;7.414;2023-06-04T10:29:54;22.30;96.70
35804;DHT22;21924;51.934;7.414;2023-06-04T10:32:39;22.40;96.70
35804;DHT22;21924;51.934;7.414;2023-06-04T10:35:31;22.40;96.70
35804;DHT22;21924;51.934;7.414;2023-06-04T10:38:15;22.50;96.40
35804;DHT22;21924;51.934;7.414;2023-06-04T10:41:12;22.70;96.20
35804;DHT22;21924;51.934;7.414;2023-06-04T10:44:00;22.80;95.80
35804;DHT22;21924;51.934;7.414;2023-06-04T10:46:44;23.10;95.20
35804;DHT22;21924;51.934;7.414;2023-06-04T10:49:30;23.10;95.10
35804;DHT22;21924;51.934;7.414;2023-06-04T10:52:14;23.10;94.40
35804;DHT22;21924;51.934;7.414;2023-06-04T10:55:05;22.80;94.30
35804;DHT22;21924;51.934;7.414;2023-06-04T10:57:56;23.00;94.90
35804;DHT22;21924;51.934;7.414;2023-06-04T11:00:41;23.10;93.90
35804;DHT22;21924;51.934;7.414;2023-06-04T11:03:36;23.30;94.60
35804;DHT22;21924;51.934;7.414;2023-06-04T11:06:21;23.30;94.00
35804;DHT22;21924;51.934;7.414;2023-06-04T11:09:05;23.60;93.90
35804;DHT22;21924;51.934;7.414;2023-06-04T11:11:59;23.60;93.00
35804;DHT22;21924;51.934;7.414;2023-06-04T11:14:53;23.00;93.50
35804;DHT22;21924;51.934;7.414;2023-06-04T11:17:37;23.40;93.60
35804;DHT22;21924;51.934;7.414;2023-06-04T11:20:21;23.70;93.50
35804;DHT22;21924;51.934;7.414;2023-06-04T11:23:06;23.80;93.30
35804;DHT22;21924;51.934;7.414;2023-06-04T11:25:52;24.10;93.50
35804;DHT22;21924;51.934;7.414;2023-06-04T11:28:36;24.30;93.50
35804;DHT22;21924;51.934;7.414;2023-06-04T11:31:20;24.40;93.50
35804;DHT22;21924;51.934;7.414;2023-06-04T11:34:05;24.50;92.80
35804;DHT22;21924;51.934;7.414;2023-06-04T11:36:49;24.80;92.10
35804;DHT22;21924;51.934;7.414;2023-06-04T11:39:34;24.80;92.10
35804;DHT22;21924;51.934;7.414;2023-06-04T11:42:18;24.80;92.10
35804;DHT22;21924;51.934;7.414;2023-06-04T11:45:03;24.90;91.40
35804;DHT22;21924;51.934;7.414;2023-06-04T11:47:47;24.70;92.00
35804;DHT22;21924;51.934;7.414;2023-06-04T11:50:32;24.80;91.50
35804;DHT22;21924;51.934;7.414;2023-06-04T11:53:16;24.20;91.50
35804;DHT22;21924;51.934;7.414;2023-06-04T11:56:01;23.70;92.20
35804;DHT22;21924;51.934;7.414;2023-06-04T11:58:45;23.70;91.90
35804;DHT22;21924;51.934;7.414;2023-06-04T12:01:30;23.80;91.90
35804;DHT22;21924;51.934;7.414;2023-06-04T12:04:17;24.40;92.30
35804;DHT22;21924;51.934;7.414;2023-06-04T12:07:02;24.90;92.40
35804;DHT22;21924;51.934;7.414;2023-06-04T12:09:48;25.10;91.80
35804;DHT22;21924;51.934;7.414;2023-06-04T12:12:32;25.20;91.20
35804;DHT22;21924;51.934;7.414;2023-06-04T12:15:20;25.30;91.30
35804;DHT22;21924;51.934;7.414;2023-06-04T12:18:04;25.50;91.30
35804;DHT22;21924;51.934;7.414;2023-06-04T12:20:49;25.70;91.20
35804;DHT22;21924;51.934;7.414;2023-06-04T12:23:33;25.80;90.60
35804;DHT22;21924;51.934;7.414;2023-06-04T12:26:23;25.60;90.60
35804;DHT22;21924;51.934;7.414;2023-06-04T12:29:14;25.50;90.70
35804;DHT22;21924;51.934;7.414;2023-06-04T12:32:08;25.10;90.30
35804;DHT22;21924;51.934;7.414;2023-06-04T12:34:52;24.90;91.10
35804;DHT22;21924;51.934;7.414;2023-06-04T12:37:37;25.40;90.50
35804;DHT22;21924;51.934;7.414;2023-06-04T12:40:21;25.70;90.80
35804;DHT22;21924;51.934;7.414;2023-06-04T12:43:05;26.00;91.10
35804;DHT22;21924;51.934;7.414;2023-06-04T12:45:50;25.80;90.70
35804;DHT22;21924;51.934;7.414;2023-06-04T12:48:34;26.10;90.80
35804;DHT22;21924;51.934;7.414;2023-06-04T12:51:19;26.30;90.60
35804;DHT22;21924;51.934;7.414;2023-06-04T12:54:04;26.30;90.50
35804;DHT22;21924;51.934;7.414;2023-06-04T12:56:48;26.40;89.20
35804;DHT22;21924;51.934;7.414;2023-06-04T12:59:33;26.80;89.80
35804;DHT22;21924;51.934;7.414;2023-06-04T13:02:17;26.80;90.00
35804;DHT22;21924;51.934;7.414;2023-06-04T13:05:01;27.00;90.00
35804;DHT22;21924;51.934;7.414;2023-06-04T13:07:45;27.30;89.90
35804;DHT22;21924;51.934;7.414;2023-06-04T13:10:29;27.60;88.80
35804;DHT22;21924;51.934;7.414;2023-06-04T13:13:14;27.20;89.30
35804;DHT22;21924;51.934;7.414;2023-06-04T13:16:02;27.60;90.30
35804;DHT22;21924;51.934;7.414;2023-06-04T13:18:46;28.00;87.70
35804;DHT22;21924;51.934;7.414;2023-06-04T13:21:30;28.10;87.20
35804;DHT22;21924;51.934;7.414;2023-06-04T13:24:15;28.40;85.30
35804;DHT22;21924;51.934;7.414;2023-06-04T13:26:59;28.60;85.60
35804;DHT22;21924;51.934;7.414;2023-06-04T13:29:43;28.70;85.90
35804;DHT22;21924;51.934;7.414;2023-06-04T13:32:28;28.80;83.90
35804;DHT22;21924;51.934;7.414;2023-06-04T13:35:12;29.20;84.60
35804;DHT22;21924;51.934;7.414;2023-06-04T13:37:56;28.80;83.40
35804;DHT22;21924;51.934;7.414;2023-06-04T13:40:41;29.30;84.30
35804;DHT22;21924;51.934;7.414;2023-06-04T13:43:27;29.90;83.90
35804;DHT22;21924;51.934;7.414;2023-06-04T13:46:11;30.10;84.20
35804;DHT22;21924;51.934;7.414;2023-06-04T13:48:55;30.30;83.20
35804;DHT22;21924;51.934;7.414;2023-06-04T13:51:40;30.70;82.80
35804;DHT22;21924;51.934;7.414;2023-06-04T13:54:25;31.30;82.90
35804;DHT22;21924;51.934;7.414;2023-06-04T13:57:09;29.40;81.00
35804;DHT22;21924;51.934;7.414;2023-06-04T13:59:55;29.80;82.00
35804;DHT22;21924;51.934;7.414;2023-06-04T14:02:39;30.50;81.00
35804;DHT22;21924;51.934;7.414;2023-06-04T14:05:25;30.70;80.40
35804;DHT22;21924;51.934;7.414;2023-06-04T14:08:11;31.10;79.30
35804;DHT22;21924;51.934;7.414;2023-06-04T14:10:56;31.90;79.20
35804;DHT22;21924;51.934;7.414;2023-06-04T14:13:41;31.60;79.20
35804;DHT22;21924;51.934;7.414;2023-06-04T14:16:28;31.70;78.00
35804;DHT22;21924;51.934;7.414;2023-06-04T14:19:13;31.50;76.00
35804;DHT22;21924;51.934;7.414;2023-06-04T14:21:57;30.70;77.70
35804;DHT22;21924;51.934;7.414;2023-06-04T14:24:41;31.20;76.80
35804;DHT22;21924;51.934;7.414;2023-06-04T14:27:26;31.80;77.40
35804;DHT22;21924;51.934;7.414;2023-06-04T14:30:11;31.70;76.70
35804;DHT22;21924;51.934;7.414;2023-06-04T14:32:55;31.40;75.70
35804;DHT22;21924;51.934;7.414;2023-06-04T14:35:40;31.20;76.80
35804;DHT22;21924;51.934;7.414;2023-06-04T14:38:29;31.40;76.00
35804;DHT22;21924;51.934;7.414;2023-06-04T14:41:14;31.50;75.50
35804;DHT22;21924;51.934;7.414;2023-06-04T14:43:59;31.30;75.50
35804;DHT22;21924;51.934;7.414;2023-06-04T14:46:43;31.50;74.80
35804;DHT22;21924;51.934;7.414;2023-06-04T14:49:27;31.20;75.40
35804;DHT22;21924;51.934;7.414;2023-06-04T14:52:11;30.70;74.70
35804;DHT22;21924;51.934;7.414;2023-06-04T14:54:56;30.50;75.60
35804;DHT22;21924;51.934;7.414;2023-06-04T14:57:40;30.30;76.10
35804;DHT22;21924;51.934;7.414;2023-06-04T15:00:24;30.50;76.00
35804;DHT22;21924;51.934;7.414;2023-06-04T15:03:08;30.90;75.80
35804;DHT22;21924;51.934;7.414;2023-06-04T15:05:53;30.70;75.40
35804;DHT22;21924;51.934;7.414;2023-06-04T15:08:37;30.30;75.60
35804;DHT22;21924;51.934;7.414;2023-06-04T15:11:21;29.70;76.10
35804;DHT22;21924;51.934;7.414;2023-06-04T15:14:06;29.00;77.00
35804;DHT22;21924;51.934;7.414;2023-06-04T15:16:50;28.60;77.10
35804;DHT22;21924;51.934;7.414;2023-06-04T15:19:34;28.30;77.60
35804;DHT22;21924;51.934;7.414;2023-06-04T15:22:18;28.30;77.60
35804;DHT22;21924;51.934;7.414;2023-06-04T15:25:03;28.00;77.20
35804;DHT22;21924;51.934;7.414;2023-06-04T15:27:48;27.30;78.30
35804;DHT22;21924;51.934;7.414;2023-06-04T15:30:32;26.90;79.00
35804;DHT22;21924;51.934;7.414;2023-06-04T15:33:16;26.30;78.80
35804;DHT22;21924;51.934;7.414;2023-06-04T15:36:01;26.00;79.00
35804;DHT22;21924;51.934;7.414;2023-06-04T15:38:48;25.70;79.80
35804;DHT22;21924;51.934;7.414;2023-06-04T15:41:32;25.50;81.30
35804;DHT22;21924;51.934;7.414;2023-06-04T15:44:17;25.20;81.20
35804;DHT22;21924;51.934;7.414;2023-06-04T15:47:01;25.20;80.60
35804;DHT22;21924;51.934;7.414;2023-06-04T15:49:45;24.90;80.90
35804;DHT22;21924;51.934;7.414;2023-06-04T15:52:29;24.80;81.00
35804;DHT22;21924;51.934;7.414;2023-06-04T15:55:14;24.60;81.60
35804;DHT22;21924;51.934;7.414;2023-06-04T15:57:59;24.50;82.60
35804;DHT22;21924;51.934;7.414;2023-06-04T16:00:44;24.40;81.90
35804;DHT22;21924;51.934;7.414;2023-06-04T16:03:28;24.40;83.10
35804;DHT22;21924;51.934;7.414;2023-06-04T16:06:12;24.40;83.30
35804;DHT22;21924;51.934;7.414;2023-06-04T16:08:57;24.30;83.40
35804;DHT22;21924;51.934;7.414;2023-06-04T16:11:41;24.20;82.50
35804;DHT22;21924;51.934;7.414;2023-06-04T16:14:25;24.10;82.00
35804;DHT22;21924;51.934;7.414;2023-06-04T16:17:09;24.00;83.30
35804;DHT22;21924;51.934;7.414;2023-06-04T16:19:54;24.10;84.00
35804;DHT22;21924;51.934;7.414;2023-06-04T16:22:38;24.00;83.20
35804;DHT22;21924;51.934;7.414;2023-06-04T16:25:22;23.90;83.60
35804;DHT22;21924;51.934;7.414;2023-06-04T16:28:06;23.80;83.80
35804;DHT22;21924;51.934;7.414;2023-06-04T16:30:51;23.80;83.70
35804;DHT22;21924;51.934;7.414;2023-06-04T16:33:35;23.90;84.30
35804;DHT22;21924;51.934;7.414;2023-06-04T16:36:19;24.00;84.50
35804;DHT22;21924;51.934;7.414;2023-06-04T16:39:04;23.90;85.70
35804;DHT22;21924;51.934;7.414;2023-06-04T16:41:49;23.80;83.90
35804;DHT22;21924;51.934;7.414;2023-06-04T16:44:33;23.70;85.10
35804;DHT22;21924;51.934;7.414;2023-06-04T16:47:18;23.70;85.20
35804;DHT22;21924;51.934;7.414;2023-06-04T16:50:03;23.60;85.20
35804;DHT22;21924;51.934;7.414;2023-06-04T16:52:48;23.50;85.30
35804;DHT22;21924;51.934;7.414;2023-06-04T16:55:33;23.50;84.90
35804;DHT22;21924;51.934;7.414;2023-06-04T16:58:18;23.50;86.10
35804;DHT22;21924;51.934;7.414;2023-06-04T17:01:02;23.70;84.80
35804;DHT22;21924;51.934;7.414;2023-06-04T17:03:46;24.40;84.20
35804;DHT22;21924;51.934;7.414;2023-06-04T17:06:30;24.70;83.80
35804;DHT22;21924;51.934;7.414;2023-06-04T17:09:15;25.20;83.40
35804;DHT22;21924;51.934;7.414;2023-06-04T17:12:00;25.70;82.90
35804;DHT22;21924;51.934;7.414;2023-06-04T17:14:44;26.80;80.80
35804;DHT22;21924;51.934;7.414;2023-06-04T17:17:28;27.50;81.10
35804;DHT22;21924;51.934;7.414;2023-06-04T17:20:12;28.20;80.20
35804;DHT22;21924;51.934;7.414;2023-06-04T17:23:00;28.40;80.10
35804;DHT22;21924;51.934;7.414;2023-06-04T17:25:44;28.20;80.50